Reeds Station, Illinois
Current Conditions -  °F | °C
As of 11:52 PM on Sunday 25 Jan 2015 (Local Time) from KMDH Reporting Station
Overcast Overcast  
Wind Chill: 23°   Ceiling: 1400
Heat Index: 33°   Visibility: 10mi
Dew Point: 29°   Wind: 15mph
Humidity: 85%   Direction: 330°NNW
Pressure: 29.95"   Gusts: 24mph
Location:  37.8209°N, 89.2055°W
Report Text: KMDH 260552Z AUTO 33013G21KT 10SM OVC014 01/M02 A2995 RMK AO2 SLP144 60000 T00061017 10061 20006 400780006 51031
Loading
Personal Weather Stations






























Interactive Weather Map New forecast layout! Learn more

10-Day Weather Forecast

Advertisements
Track Severe Weather on mobile